createdAt,value
2022-08-02T00:00:56.144Z,1.48
2022-08-02T00:02:57.863Z,1.30
2022-08-02T00:04:59.624Z,2.43
2022-08-02T00:07:01.264Z,2.00
2022-08-02T00:09:04.805Z,1.70
2022-08-02T00:11:06.660Z,2.50
2022-08-02T00:13:08.412Z,1.60
2022-08-02T00:15:10.992Z,2.47
2022-08-02T00:17:18.082Z,1.50
2022-08-02T00:19:20.034Z,3.30
2022-08-02T00:21:21.851Z,1.60
2022-08-02T00:23:23.688Z,1.52
2022-08-02T00:25:25.349Z,1.63
2022-08-02T00:27:27.091Z,2.10
2022-08-02T00:29:28.840Z,1.75
2022-08-02T00:31:30.573Z,1.40
2022-08-02T00:34:26.389Z,1.50
2022-08-02T00:35:53.974Z,1.52
2022-08-02T00:37:55.636Z,1.50
2022-08-02T00:39:57.495Z,1.20
2022-08-02T00:41:59.249Z,1.80
2022-08-02T00:44:00.942Z,1.10
2022-08-02T00:46:03.918Z,3.15
2022-08-02T00:48:07.609Z,1.50
2022-08-02T00:50:09.790Z,1.67
2022-08-02T00:52:11.776Z,1.40
2022-08-02T00:54:14.770Z,1.30
2022-08-02T00:56:16.507Z,1.50
2022-08-02T00:58:18.416Z,1.60
2022-08-02T01:00:20.890Z,1.65
2022-08-02T01:02:22.618Z,1.65
2022-08-02T01:04:31.392Z,1.67
2022-08-02T01:06:33.805Z,1.60
2022-08-02T01:08:35.517Z,1.77
2022-08-02T01:10:37.609Z,1.30
2022-08-02T01:12:39.298Z,1.50
2022-08-02T01:14:52.310Z,1.42
2022-08-02T01:19:17.381Z,1.40
2022-08-02T01:21:41.077Z,1.80
2022-08-02T01:23:54.485Z,1.40
2022-08-02T01:25:58.964Z,1.50
2022-08-02T01:28:03.468Z,1.23
2022-08-02T01:30:07.150Z,2.00
2022-08-02T01:32:16.307Z,1.40
2022-08-02T01:34:24.622Z,1.10
2022-08-02T01:36:28.727Z,1.27
2022-08-02T01:38:38.939Z,1.45
2022-08-02T01:40:44.150Z,1.70
2022-08-02T01:42:48.405Z,1.30
2022-08-02T01:44:53.341Z,2.13
2022-08-02T01:46:59.997Z,1.77
2022-08-02T01:49:08.497Z,1.30
2022-08-02T01:51:16.259Z,1.73
2022-08-02T01:53:19.642Z,1.63
2022-08-02T01:55:35.093Z,2.00
2022-08-02T01:57:52.709Z,2.00
2022-08-02T01:59:57.629Z,1.38
2022-08-02T02:02:01.210Z,2.45
2022-08-02T02:04:03.662Z,1.90
2022-08-02T02:06:07.366Z,2.63
2022-08-02T02:08:10.439Z,1.80
2022-08-02T02:10:16.736Z,2.20
2022-08-02T02:12:19.966Z,1.90
2022-08-02T02:14:24.593Z,2.22
2022-08-02T02:16:28.192Z,1.73
2022-08-02T02:18:30.852Z,2.05
2022-08-02T02:20:32.622Z,1.95
2022-08-02T02:22:34.361Z,1.95
2022-08-02T02:24:37.992Z,2.55
2022-08-02T02:26:52.466Z,1.70
2022-08-02T02:28:56.671Z,1.63
2022-08-02T02:31:06.577Z,1.67
2022-08-02T02:33:09.745Z,1.67
2022-08-02T02:35:13.670Z,2.35
2022-08-02T02:37:22.478Z,2.05
2022-08-02T02:39:28.423Z,2.10
2022-08-02T02:41:30.281Z,1.83
2022-08-02T02:43:34.119Z,2.08
2022-08-02T02:45:38.076Z,2.20
2022-08-02T02:47:41.227Z,2.35
2022-08-02T02:49:46.030Z,2.03
2022-08-02T02:51:48.305Z,2.10
2022-08-02T02:54:30.078Z,2.35
2022-08-02T02:56:13.875Z,2.17
2022-08-02T02:58:16.187Z,3.00
2022-08-02T03:00:18.135Z,2.33
2022-08-02T03:02:20.416Z,2.40
2022-08-02T03:04:23.749Z,2.13
2022-08-02T03:06:25.661Z,2.50
2022-08-02T03:08:27.377Z,2.42
2022-08-02T03:10:29.422Z,2.90
2022-08-02T03:12:32.471Z,2.53
2022-08-02T03:14:34.871Z,1.50
2022-08-02T03:16:43.684Z,1.90
2022-08-02T03:18:45.411Z,2.22
2022-08-02T03:20:48.164Z,2.15
2022-08-02T03:22:50.036Z,1.70
2022-08-02T03:24:52.838Z,2.50
2022-08-02T03:26:54.619Z,1.20
2022-08-02T03:28:56.247Z,1.80
2022-08-02T03:30:58.067Z,1.77
2022-08-02T03:32:59.769Z,1.85
2022-08-02T03:35:02.451Z,1.77
2022-08-02T03:39:07.521Z,1.88
2022-08-02T03:41:11.021Z,1.88
2022-08-02T03:43:14.208Z,1.67
2022-08-02T03:45:16.594Z,1.70
2022-08-02T03:47:19.840Z,1.45
2022-08-02T03:49:22.146Z,1.75
2022-08-02T03:51:24.118Z,1.60
2022-08-02T03:53:26.000Z,2.10
2022-08-02T03:55:27.691Z,1.70
2022-08-02T03:57:29.904Z,2.33
2022-08-02T03:59:40.848Z,1.70
2022-08-02T04:01:42.789Z,1.30
2022-08-02T04:03:44.577Z,2.63
2022-08-02T04:06:03.794Z,1.50
2022-08-02T04:08:33.818Z,2.17
2022-08-02T04:10:28.274Z,1.70
2022-08-02T04:12:30.003Z,2.17
2022-08-02T04:14:31.852Z,1.83
2022-08-02T04:16:42.851Z,2.08
2022-08-02T04:19:00.465Z,2.08
2022-08-02T04:21:04.071Z,2.40
2022-08-02T04:23:07.915Z,1.90
2022-08-02T04:25:17.541Z,2.10
2022-08-02T04:28:15.334Z,2.35
2022-08-02T04:29:46.761Z,2.28
2022-08-02T04:31:49.144Z,2.63
2022-08-02T04:33:51.283Z,2.45
2022-08-02T04:35:57.807Z,2.20
2022-08-02T04:38:05.481Z,2.90
2022-08-02T04:40:13.023Z,2.05
2022-08-02T04:44:26.103Z,1.83
2022-08-02T04:46:27.833Z,4.10
2022-08-02T04:48:32.556Z,2.35
2022-08-02T04:50:35.000Z,3.35
2022-08-02T04:52:36.824Z,3.30
2022-08-02T04:54:38.603Z,2.47
2022-08-02T04:56:40.757Z,2.35
2022-08-02T04:58:42.482Z,3.00
2022-08-02T05:00:44.595Z,2.20
2022-08-02T05:02:46.496Z,2.72
2022-08-02T05:04:48.193Z,2.58
2022-08-02T05:06:49.824Z,2.83
2022-08-02T05:08:52.927Z,2.22
2022-08-02T05:10:55.495Z,2.13
2022-08-02T05:12:57.263Z,2.17
2022-08-02T05:14:59.124Z,2.72
2022-08-02T05:17:00.787Z,3.17
2022-08-02T05:19:03.257Z,3.37
2022-08-02T05:21:05.118Z,2.50
2022-08-02T05:23:06.895Z,3.83
2022-08-02T05:25:09.692Z,2.53
2022-08-02T05:27:17.049Z,3.58
2022-08-02T05:29:23.241Z,3.50
2022-08-02T05:31:25.120Z,3.63
2022-08-02T05:33:26.858Z,4.03
2022-08-02T05:35:28.651Z,3.10
2022-08-02T05:37:32.186Z,3.20
2022-08-02T05:39:34.144Z,3.63
2022-08-02T05:41:37.029Z,2.80
2022-08-02T05:43:38.803Z,3.40
2022-08-02T05:45:40.731Z,3.40
2022-08-02T05:47:42.481Z,3.45
2022-08-02T05:49:44.196Z,3.50
2022-08-02T05:51:59.253Z,4.80
2022-08-02T05:54:19.751Z,4.05
2022-08-02T05:56:37.974Z,3.75
2022-08-02T05:58:58.000Z,3.40
2022-08-02T06:01:03.346Z,3.83
2022-08-02T06:03:23.696Z,4.07
2022-08-02T06:05:29.007Z,5.07
2022-08-02T06:07:34.788Z,5.57
2022-08-02T06:09:39.028Z,4.00
2022-08-02T06:12:01.475Z,4.20
2022-08-02T06:14:06.630Z,4.20
2022-08-02T06:16:14.066Z,3.90
2022-08-02T06:18:16.746Z,3.90
2022-08-02T06:20:20.507Z,4.22
2022-08-02T06:22:33.730Z,4.40
2022-08-02T06:24:38.094Z,5.35
2022-08-02T06:26:41.576Z,4.20
2022-08-02T06:28:45.257Z,4.10
2022-08-02T06:30:47.842Z,5.00
2022-08-02T06:34:54.488Z,4.30
2022-08-02T06:37:09.037Z,5.18
2022-08-02T06:39:23.891Z,4.47
2022-08-02T06:41:26.324Z,5.22
2022-08-02T06:44:13.698Z,17.70
2022-08-02T06:48:43.998Z,4.68
2022-08-02T06:50:45.880Z,5.90
2022-08-02T06:52:47.543Z,5.18
2022-08-02T06:54:49.178Z,5.13
2022-08-02T06:56:50.904Z,4.83
2022-08-02T06:58:52.608Z,5.87
2022-08-02T07:00:54.402Z,6.10
2022-08-02T07:02:56.545Z,6.95
2022-08-02T07:04:58.755Z,6.45
2022-08-02T07:07:01.275Z,6.93
2022-08-02T07:11:22.326Z,6.45
2022-08-02T07:13:24.108Z,7.13
2022-08-02T07:15:25.843Z,6.53
2022-08-02T07:17:28.368Z,6.15
2022-08-02T07:19:37.653Z,7.57
2022-08-02T07:21:59.596Z,7.20
2022-08-02T07:24:01.603Z,7.38
2022-08-02T07:26:05.416Z,8.27
2022-08-02T07:28:16.824Z,6.80
2022-08-02T07:30:26.629Z,8.55
2022-08-02T07:32:31.972Z,7.68
2022-08-02T07:34:33.712Z,7.75
2022-08-02T07:36:35.666Z,6.97
2022-08-02T07:38:37.585Z,7.50
2022-08-02T07:40:39.423Z,7.53
2022-08-02T07:42:45.081Z,8.07
2022-08-02T07:44:49.223Z,7.75
2022-08-02T07:46:51.286Z,7.35
2022-08-02T07:48:54.789Z,6.93
2022-08-02T07:50:57.474Z,7.20
2022-08-02T07:52:59.173Z,6.93
2022-08-02T07:55:01.234Z,7.13
2022-08-02T07:57:03.577Z,7.63
2022-08-02T07:59:05.477Z,7.70
2022-08-02T08:01:07.212Z,8.05
2022-08-02T08:03:09.065Z,7.65
2022-08-02T08:05:11.322Z,7.25
2022-08-02T08:07:13.478Z,8.27
2022-08-02T08:09:15.171Z,6.93
2022-08-02T08:11:16.885Z,7.78
2022-08-02T08:13:18.731Z,7.43
2022-08-02T08:15:20.679Z,6.90
2022-08-02T08:17:22.737Z,6.35
2022-08-02T08:19:50.497Z,7.55
2022-08-02T08:21:47.264Z,5.78
2022-08-02T08:23:48.946Z,6.60
2022-08-02T08:25:50.920Z,5.68
2022-08-02T08:27:53.092Z,4.85
2022-08-02T08:29:54.872Z,6.47
2022-08-02T08:31:56.723Z,6.32
2022-08-02T08:33:58.427Z,6.35
2022-08-02T08:36:00.167Z,5.10
2022-08-02T08:38:07.717Z,6.38
2022-08-02T08:40:14.179Z,6.47
2022-08-02T08:42:21.568Z,5.87
2022-08-02T08:44:23.508Z,6.15
2022-08-02T08:46:30.716Z,5.47
2022-08-02T08:48:35.464Z,3.97
2022-08-02T08:50:42.949Z,5.30
2022-08-02T08:52:54.881Z,5.90
2022-08-02T08:54:56.970Z,4.93
2022-08-02T08:57:05.407Z,4.50
2022-08-02T08:59:07.380Z,4.80
2022-08-02T09:01:12.094Z,5.03
2022-08-02T09:03:13.866Z,4.70
2022-08-02T09:05:17.281Z,3.92
2022-08-02T09:07:19.106Z,4.07
2022-08-02T09:09:20.807Z,3.38
2022-08-02T09:11:26.306Z,3.92
2022-08-02T09:13:39.121Z,3.47
2022-08-02T09:15:59.238Z,3.00
2022-08-02T09:18:13.477Z,2.47
2022-08-02T09:20:15.270Z,2.30
2022-08-02T09:22:18.517Z,2.40
2022-08-02T09:24:23.356Z,2.95
2022-08-02T09:26:25.247Z,2.78
2022-08-02T09:28:32.131Z,2.90
2022-08-02T09:30:43.126Z,2.42
2022-08-02T09:32:47.924Z,3.40
2022-08-02T09:34:53.957Z,3.50
2022-08-02T09:36:55.693Z,2.60
2022-08-02T09:39:01.778Z,2.20
2022-08-02T09:41:05.235Z,2.40
2022-08-02T09:43:08.403Z,2.55
2022-08-02T09:45:10.686Z,2.40
2022-08-02T09:47:16.999Z,2.20
2022-08-02T09:49:19.840Z,2.35
2022-08-02T09:51:28.638Z,1.80
2022-08-02T09:53:31.212Z,2.38
2022-08-02T09:55:33.257Z,2.20
2022-08-02T09:57:38.499Z,2.35
2022-08-02T09:59:52.764Z,2.00
2022-08-02T10:02:01.929Z,1.90
2022-08-02T10:04:06.867Z,1.75
2022-08-02T10:06:08.660Z,1.98
2022-08-02T10:08:10.514Z,1.73
2022-08-02T10:10:12.738Z,1.30
2022-08-02T10:12:15.595Z,1.92
2022-08-02T10:14:19.372Z,1.50
2022-08-02T10:16:26.017Z,1.25
2022-08-02T10:18:43.041Z,1.55
2022-08-02T10:20:45.145Z,1.58
2022-08-02T10:22:48.030Z,1.67
2022-08-02T10:24:50.716Z,1.30
2022-08-02T10:26:53.530Z,2.13
2022-08-02T10:28:55.316Z,2.20
2022-08-02T10:30:59.449Z,1.48
2022-08-02T10:33:02.852Z,1.40
2022-08-02T10:35:21.725Z,1.38
2022-08-02T10:37:31.286Z,1.50
2022-08-02T10:39:41.184Z,1.50
2022-08-02T10:41:52.924Z,1.70
2022-08-02T10:43:59.971Z,1.38
2022-08-02T10:46:33.601Z,1.55
2022-08-02T10:49:37.934Z,1.52
2022-08-02T10:51:55.016Z,1.67
2022-08-02T10:54:08.759Z,1.85
2022-08-02T10:56:10.457Z,1.88
2022-08-02T10:58:25.890Z,1.55
2022-08-02T11:00:28.136Z,1.48
2022-08-02T11:02:38.611Z,1.80
2022-08-02T11:04:43.078Z,1.20
2022-08-02T11:07:07.527Z,1.20
2022-08-02T11:09:32.431Z,1.40
2022-08-02T11:12:05.631Z,1.35
2022-08-02T11:14:08.738Z,1.50
2022-08-02T11:16:12.028Z,1.70
2022-08-02T11:18:13.968Z,1.38
2022-08-02T11:20:17.537Z,1.65
2022-08-02T11:22:25.251Z,1.35
2022-08-02T11:24:32.538Z,1.20
2022-08-02T11:26:34.220Z,1.35
2022-08-02T11:28:36.018Z,1.25
2022-08-02T11:30:38.921Z,1.17
2022-08-02T11:32:41.342Z,1.27
2022-08-02T11:34:44.420Z,1.40
2022-08-02T11:36:50.956Z,1.30
2022-08-02T11:39:12.589Z,1.92
2022-08-02T11:41:47.506Z,1.30
2022-08-02T11:43:46.729Z,1.40
2022-08-02T11:45:56.230Z,1.42
2022-08-02T11:47:58.032Z,1.23
2022-08-02T11:50:08.774Z,1.30
2022-08-02T11:52:11.353Z,1.50
2022-08-02T11:54:22.890Z,1.30
2022-08-02T11:56:29.981Z,1.55
2022-08-02T11:58:31.748Z,1.20
2022-08-02T12:00:33.887Z,1.30
2022-08-02T12:04:37.934Z,1.58
2022-08-02T12:06:40.445Z,0.98
2022-08-02T12:08:42.104Z,1.08
2022-08-02T12:10:56.161Z,0.93
2022-08-02T12:13:01.122Z,1.40
2022-08-02T12:15:03.084Z,1.20
2022-08-02T12:17:25.219Z,1.70
2022-08-02T12:19:27.867Z,1.45
2022-08-02T12:21:29.771Z,1.30
2022-08-02T12:23:31.635Z,1.77
2022-08-02T12:25:35.446Z,1.55
2022-08-02T12:27:41.368Z,1.48
2022-08-02T12:29:57.980Z,1.48
2022-08-02T12:32:01.868Z,1.27
2022-08-02T12:34:14.940Z,1.40
2022-08-02T12:36:17.971Z,1.10
2022-08-02T12:38:19.792Z,1.10
2022-08-02T12:40:25.745Z,0.95
2022-08-02T12:42:27.784Z,1.20
2022-08-02T12:44:29.625Z,1.25
2022-08-02T12:46:32.021Z,2.05
2022-08-02T12:51:22.479Z,1.10
2022-08-02T12:53:31.540Z,1.30
2022-08-02T12:56:02.482Z,1.45
2022-08-02T12:58:02.742Z,0.90
2022-08-02T13:00:05.496Z,1.27
2022-08-02T13:02:10.976Z,1.02
2022-08-02T13:04:14.103Z,1.13
2022-08-02T13:06:41.921Z,0.98
2022-08-02T13:08:42.157Z,1.13
2022-08-02T13:10:44.003Z,1.20
2022-08-02T13:12:45.939Z,1.20
2022-08-02T13:14:47.648Z,1.00
2022-08-02T13:16:49.589Z,1.20
2022-08-02T13:18:51.319Z,1.10
2022-08-02T13:20:53.045Z,1.23
2022-08-02T13:22:54.859Z,1.17
2022-08-02T13:25:06.225Z,1.48
2022-08-02T13:29:12.158Z,1.15
2022-08-02T13:31:35.471Z,1.20
2022-08-02T13:33:35.476Z,1.37
2022-08-02T13:35:37.167Z,1.35
2022-08-02T13:37:41.766Z,1.02
2022-08-02T13:39:55.318Z,1.23
2022-08-02T13:42:05.730Z,1.38
2022-08-02T13:44:10.776Z,1.30
2022-08-02T13:46:13.106Z,1.30
2022-08-02T13:48:16.979Z,1.17
2022-08-02T13:50:20.240Z,1.10
2022-08-02T13:52:21.983Z,1.40
2022-08-02T13:54:23.790Z,1.30
2022-08-02T13:56:35.548Z,1.17
2022-08-02T14:00:39.585Z,1.20
2022-08-02T14:02:41.310Z,1.42
2022-08-02T14:04:43.443Z,1.20
2022-08-02T14:08:47.110Z,1.35
2022-08-02T14:10:50.176Z,1.20
2022-08-02T14:12:56.597Z,1.00
2022-08-02T14:14:58.517Z,1.30
2022-08-02T14:17:01.958Z,1.30
2022-08-02T14:19:05.298Z,1.25
2022-08-02T14:21:12.625Z,1.20
2022-08-02T14:23:14.709Z,1.30
2022-08-02T14:25:16.796Z,1.25
2022-08-02T14:27:18.536Z,1.45
2022-08-02T14:29:20.309Z,1.10
2022-08-02T14:31:22.546Z,1.40
2022-08-02T14:33:24.360Z,1.52
2022-08-02T14:35:26.081Z,1.10
2022-08-02T14:37:27.843Z,1.40
2022-08-02T14:39:42.961Z,1.20
2022-08-02T14:42:00.038Z,1.57
2022-08-02T14:44:07.986Z,1.02
2022-08-02T14:46:09.765Z,1.15
2022-08-02T14:48:12.312Z,1.30
2022-08-02T14:50:14.563Z,1.23
2022-08-02T14:52:16.932Z,1.25
2022-08-02T14:54:18.639Z,1.38
2022-08-02T14:56:20.778Z,0.90
2022-08-02T14:58:22.461Z,0.98
2022-08-02T15:00:24.175Z,1.55
2022-08-02T15:02:28.964Z,1.05
2022-08-02T15:04:34.143Z,1.50
2022-08-02T15:06:42.864Z,1.15
2022-08-02T15:08:44.555Z,1.00
2022-08-02T15:10:46.656Z,0.90
2022-08-02T15:14:50.263Z,1.30
2022-08-02T15:16:59.349Z,2.00
2022-08-02T15:19:07.286Z,2.33
2022-08-02T15:21:11.750Z,1.40
2022-08-02T15:23:34.879Z,1.40
2022-08-02T15:25:41.773Z,1.20
2022-08-02T15:27:44.917Z,2.25
2022-08-02T15:29:46.793Z,1.67
2022-08-02T15:31:48.604Z,1.80
2022-08-02T15:33:50.337Z,1.80
2022-08-02T15:35:52.051Z,2.83
2022-08-02T15:37:54.378Z,1.48
2022-08-02T15:39:56.082Z,5.93
2022-08-02T15:41:58.112Z,3.78
2022-08-02T15:46:03.621Z,2.25
2022-08-02T15:48:05.837Z,2.42
2022-08-02T15:50:07.849Z,4.80
2022-08-02T15:52:12.846Z,6.85
2022-08-02T15:56:16.229Z,3.38
2022-08-02T15:58:23.952Z,1.60
2022-08-02T16:02:27.454Z,1.60
2022-08-02T16:04:29.360Z,1.30
2022-08-02T16:06:31.265Z,1.58
2022-08-02T16:08:32.982Z,1.38
2022-08-02T16:10:35.897Z,1.45
2022-08-02T16:12:38.141Z,0.98
2022-08-02T16:14:39.972Z,1.67
2022-08-02T16:16:41.747Z,1.40
2022-08-02T16:18:43.459Z,1.20
2022-08-02T16:20:45.263Z,1.60
2022-08-02T16:22:46.970Z,1.45
2022-08-02T16:24:48.743Z,1.50
2022-08-02T16:26:50.613Z,1.20
2022-08-02T16:28:53.219Z,1.30
2022-08-02T16:31:10.524Z,1.60
2022-08-02T16:33:12.887Z,1.60
2022-08-02T16:35:14.664Z,1.30
2022-08-02T16:37:16.427Z,1.67
2022-08-02T16:39:18.356Z,1.92
2022-08-02T16:41:20.960Z,1.63
2022-08-02T16:43:22.651Z,1.58
2022-08-02T16:45:24.469Z,1.45
2022-08-02T16:50:06.022Z,1.35
2022-08-02T16:52:09.837Z,1.55
2022-08-02T16:54:11.620Z,1.30
2022-08-02T16:56:13.344Z,1.27
2022-08-02T16:58:16.519Z,2.78
2022-08-02T17:00:19.789Z,1.60
2022-08-02T17:02:25.679Z,1.70
2022-08-02T17:04:27.579Z,1.50
2022-08-02T17:06:30.465Z,1.65
2022-08-02T17:08:32.493Z,1.73
2022-08-02T17:10:34.694Z,1.52
2022-08-02T17:14:41.848Z,1.70
2022-08-02T17:16:57.509Z,1.65
2022-08-02T17:18:59.939Z,1.60
2022-08-02T17:21:04.282Z,1.27
2022-08-02T17:23:06.167Z,1.30
2022-08-02T17:25:10.970Z,1.70
2022-08-02T17:27:13.486Z,1.85
2022-08-02T17:29:18.165Z,1.55
2022-08-02T17:31:20.026Z,1.70
2022-08-02T17:33:31.654Z,1.70
2022-08-02T17:37:54.347Z,1.40
2022-08-02T17:40:01.584Z,1.73
2022-08-02T17:44:06.604Z,1.40
2022-08-02T17:46:10.523Z,1.83
2022-08-02T17:48:14.886Z,1.80
2022-08-02T17:50:17.206Z,1.90
2022-08-02T17:54:41.422Z,1.80
2022-08-02T17:56:49.103Z,1.65
2022-08-02T17:58:53.814Z,3.00
2022-08-02T18:00:56.955Z,1.30
2022-08-02T18:03:00.082Z,1.40
2022-08-02T18:05:01.999Z,1.42
2022-08-02T18:07:09.921Z,1.88
2022-08-02T18:09:12.150Z,1.50
2022-08-02T18:13:16.050Z,1.98
2022-08-02T18:15:19.274Z,1.80
2022-08-02T18:17:22.064Z,1.85
2022-08-02T18:19:23.778Z,1.60
2022-08-02T18:21:44.676Z,2.00
2022-08-02T18:23:49.432Z,2.13
2022-08-02T18:25:55.181Z,1.55
2022-08-02T18:27:57.301Z,2.22
2022-08-02T18:30:00.211Z,2.72
2022-08-02T18:32:11.863Z,1.98
2022-08-02T18:34:14.287Z,1.95
2022-08-02T18:36:24.611Z,2.05
2022-08-02T18:38:30.165Z,1.92
2022-08-02T18:40:32.394Z,2.05
2022-08-02T18:42:34.208Z,2.03
2022-08-02T18:44:36.017Z,1.73
2022-08-02T18:46:41.352Z,1.80
2022-08-02T18:48:46.191Z,1.40
2022-08-02T18:50:48.922Z,2.00
2022-08-02T18:52:51.593Z,2.33
2022-08-02T18:54:58.370Z,1.48
2022-08-02T18:57:00.825Z,1.40
2022-08-02T18:59:07.462Z,1.75
2022-08-02T19:01:21.841Z,1.85
2022-08-02T19:03:31.376Z,1.77
2022-08-02T19:05:51.540Z,2.13
2022-08-02T19:07:55.551Z,2.00
2022-08-02T19:09:57.989Z,1.45
2022-08-02T19:11:59.950Z,1.67
2022-08-02T19:14:01.784Z,1.60
2022-08-02T19:16:03.631Z,1.95
2022-08-02T19:18:06.962Z,1.73
2022-08-02T19:20:09.639Z,2.20
2022-08-02T19:22:17.808Z,2.17
2022-08-02T19:24:29.522Z,1.50
2022-08-02T19:26:31.575Z,2.85
2022-08-02T19:28:34.935Z,2.05
2022-08-02T19:30:38.217Z,2.33
2022-08-02T19:32:59.441Z,1.65
2022-08-02T19:35:03.698Z,1.58
2022-08-02T19:37:21.801Z,1.70
2022-08-02T19:39:23.662Z,1.60
2022-08-02T19:41:28.680Z,1.63
2022-08-02T19:44:25.925Z,2.13
2022-08-02T19:46:07.690Z,2.78
2022-08-02T19:48:17.829Z,1.80
2022-08-02T19:50:27.677Z,1.83
2022-08-02T19:52:29.663Z,1.92
2022-08-02T19:54:35.696Z,1.73
2022-08-02T19:56:53.209Z,1.60
2022-08-02T19:58:58.754Z,1.55
2022-08-02T20:01:01.175Z,1.95
2022-08-02T20:03:03.163Z,1.52
2022-08-02T20:05:08.212Z,2.00
2022-08-02T20:07:48.256Z,1.35
2022-08-02T20:11:54.065Z,2.50
2022-08-02T20:13:56.977Z,2.17
2022-08-02T20:16:02.424Z,1.85
2022-08-02T20:18:05.683Z,2.63
2022-08-02T20:20:08.912Z,2.15
2022-08-02T20:22:11.018Z,1.80
2022-08-02T20:24:12.748Z,1.77
2022-08-02T20:26:14.415Z,1.70
2022-08-02T20:28:16.523Z,1.90
2022-08-02T20:30:18.426Z,1.80
2022-08-02T20:32:23.735Z,1.75
2022-08-02T20:34:26.248Z,2.30
2022-08-02T20:36:28.600Z,2.20
2022-08-02T20:38:30.813Z,1.75
2022-08-02T20:42:34.612Z,1.80
2022-08-02T20:44:36.620Z,1.77
2022-08-02T20:46:38.357Z,1.67
2022-08-02T20:48:40.218Z,1.83
2022-08-02T20:50:49.466Z,1.55
2022-08-02T20:52:53.450Z,1.40
2022-08-02T20:54:55.148Z,1.95
2022-08-02T20:56:56.827Z,2.40
2022-08-02T20:59:03.786Z,1.95
2022-08-02T21:01:13.246Z,2.08
2022-08-02T21:03:16.266Z,2.40
2022-08-02T21:05:26.826Z,2.13
2022-08-02T21:07:43.070Z,2.05
2022-08-02T21:09:52.730Z,1.95
2022-08-02T21:11:56.082Z,1.85
2022-08-02T21:14:07.082Z,4.15
2022-08-02T21:16:13.667Z,3.10
2022-08-02T21:18:24.304Z,3.60
2022-08-02T21:20:36.903Z,2.28
2022-08-02T21:22:38.661Z,3.15
2022-08-02T21:26:42.651Z,2.95
2022-08-02T21:28:51.282Z,2.75
2022-08-02T21:30:53.256Z,2.72
2022-08-02T21:32:55.031Z,3.42
2022-08-02T21:34:58.989Z,2.15
2022-08-02T21:37:00.816Z,2.88
2022-08-02T21:39:11.472Z,2.35
2022-08-02T21:41:13.207Z,3.63
2022-08-02T21:43:14.908Z,2.88
2022-08-02T21:45:19.926Z,3.03
2022-08-02T21:47:27.582Z,2.58
2022-08-02T21:50:08.748Z,2.90
2022-08-02T21:51:52.469Z,2.47
2022-08-02T21:54:18.170Z,2.67
2022-08-02T21:56:15.848Z,2.10
2022-08-02T21:58:20.090Z,2.70
2022-08-02T22:00:28.479Z,2.45
2022-08-02T22:02:31.253Z,2.47
2022-08-02T22:04:33.216Z,1.88
2022-08-02T22:06:35.234Z,2.45
2022-08-02T22:08:38.247Z,2.15
2022-08-02T22:10:58.785Z,2.80
2022-08-02T22:13:01.637Z,2.53
2022-08-02T22:15:05.836Z,2.33
2022-08-02T22:17:13.653Z,2.03
2022-08-02T22:19:15.833Z,2.30
2022-08-02T22:21:17.557Z,2.00
2022-08-02T22:23:38.477Z,2.15
2022-08-02T22:25:40.443Z,2.75
2022-08-02T22:28:36.732Z,3.22
2022-08-02T22:30:04.217Z,2.47
2022-08-02T22:32:08.439Z,2.95
2022-08-02T22:34:11.701Z,2.05
2022-08-02T22:36:43.176Z,2.63
2022-08-02T22:38:46.912Z,2.63
2022-08-02T22:40:50.566Z,2.88
2022-08-02T22:42:54.072Z,2.50
2022-08-02T22:44:57.327Z,3.38
2022-08-02T22:46:59.501Z,2.13
2022-08-02T22:49:09.209Z,2.17
2022-08-02T22:51:30.888Z,2.20
2022-08-02T22:53:35.383Z,2.40
2022-08-02T22:55:41.354Z,2.70
2022-08-02T22:57:50.527Z,3.03
2022-08-02T23:00:00.154Z,2.78
2022-08-02T23:02:05.546Z,2.30
2022-08-02T23:04:07.268Z,2.08
2022-08-02T23:06:09.166Z,2.38
2022-08-02T23:08:11.004Z,1.60
2022-08-02T23:10:13.561Z,1.67
2022-08-02T23:12:19.177Z,2.13
2022-08-02T23:14:20.874Z,2.47
2022-08-02T23:16:40.897Z,2.22
2022-08-02T23:19:02.466Z,2.40
2022-08-02T23:21:04.435Z,3.08
2022-08-02T23:23:11.577Z,3.38
2022-08-02T23:25:13.658Z,3.13
2022-08-02T23:27:15.615Z,2.58
2022-08-02T23:29:17.287Z,2.50
2022-08-02T23:31:34.015Z,2.47
2022-08-02T23:33:58.453Z,2.15
2022-08-02T23:36:01.672Z,2.88
2022-08-02T23:38:03.956Z,3.75
2022-08-02T23:40:06.436Z,2.20
2022-08-02T23:44:14.508Z,3.25
2022-08-02T23:46:16.947Z,3.50
2022-08-02T23:48:18.624Z,3.95
2022-08-02T23:50:20.354Z,2.65
2022-08-02T23:52:24.806Z,2.67
2022-08-02T23:54:26.636Z,2.70
2022-08-02T23:56:28.418Z,2.13
2022-08-02T23:58:33.147Z,2.85
